sensor_id;sensor_type;location;lat;lon;timestamp;P1;durP1;ratioP1;P2;durP2;ratioP2
68995;SDS011;56056;48.990;12.146;2024-03-17T00:01:47;1999.90;;;999.90;;
68995;SDS011;56056;48.990;12.146;2024-03-17T00:04:14;1999.90;;;999.90;;
68995;SDS011;56056;48.990;12.146;2024-03-17T00:06:40;1999.90;;;999.90;;
68995;SDS011;56056;48.990;12.146;2024-03-17T00:09:05;1999.90;;;999.90;;
68995;SDS011;56056;48.990;12.146;2024-03-17T00:11:34;1999.90;;;999.90;;
68995;SDS011;56056;48.990;12.146;2024-03-17T00:14:00;1999.90;;;999.90;;
68995;SDS011;56056;48.990;12.146;2024-03-17T00:16:26;1999.90;;;999.90;;
68995;SDS011;56056;48.990;12.146;2024-03-17T00:18:52;1999.90;;;999.90;;
68995;SDS011;56056;48.990;12.146;2024-03-17T00:21:19;1999.90;;;999.90;;
68995;SDS011;56056;48.990;12.146;2024-03-17T00:23:45;1999.90;;;999.90;;
68995;SDS011;56056;48.990;12.146;2024-03-17T00:26:14;1999.90;;;999.90;;
68995;SDS011;56056;48.990;12.146;2024-03-17T00:28:40;1999.90;;;999.90;;
68995;SDS011;56056;48.990;12.146;2024-03-17T00:31:06;1999.90;;;999.90;;
68995;SDS011;56056;48.990;12.146;2024-03-17T00:33:35;1999.90;;;999.90;;
68995;SDS011;56056;48.990;12.146;2024-03-17T00:36:00;1999.90;;;999.90;;
68995;SDS011;56056;48.990;12.146;2024-03-17T00:38:28;1999.90;;;999.90;;
68995;SDS011;56056;48.990;12.146;2024-03-17T00:40:54;1999.90;;;999.90;;
68995;SDS011;56056;48.990;12.146;2024-03-17T00:43:20;1999.90;;;999.90;;
68995;SDS011;56056;48.990;12.146;2024-03-17T00:45:50;1999.90;;;999.90;;
68995;SDS011;56056;48.990;12.146;2024-03-17T00:48:16;1965.05;;;999.90;;
68995;SDS011;56056;48.990;12.146;2024-03-17T00:50:42;1956.43;;;999.90;;
68995;SDS011;56056;48.990;12.146;2024-03-17T00:53:09;1945.90;;;999.90;;
68995;SDS011;56056;48.990;12.146;2024-03-17T00:55:37;1925.45;;;999.90;;
68995;SDS011;56056;48.990;12.146;2024-03-17T00:58:03;1956.28;;;999.90;;
68995;SDS011;56056;48.990;12.146;2024-03-17T01:00:29;1986.25;;;999.90;;
68995;SDS011;56056;48.990;12.146;2024-03-17T01:02:58;1982.00;;;999.90;;
68995;SDS011;56056;48.990;12.146;2024-03-17T01:05:23;1991.28;;;999.90;;
68995;SDS011;56056;48.990;12.146;2024-03-17T01:07:49;1885.70;;;999.90;;
68995;SDS011;56056;48.990;12.146;2024-03-17T01:10:15;1713.65;;;999.90;;
68995;SDS011;56056;48.990;12.146;2024-03-17T01:12:42;1662.72;;;999.90;;
68995;SDS011;56056;48.990;12.146;2024-03-17T01:15:09;1727.30;;;999.90;;
68995;SDS011;56056;48.990;12.146;2024-03-17T01:17:36;1772.15;;;999.90;;
68995;SDS011;56056;48.990;12.146;2024-03-17T01:20:02;1674.35;;;999.90;;
68995;SDS011;56056;48.990;12.146;2024-03-17T01:22:28;1787.18;;;999.90;;
68995;SDS011;56056;48.990;12.146;2024-03-17T01:24:54;1977.80;;;999.90;;
68995;SDS011;56056;48.990;12.146;2024-03-17T01:27:20;1963.15;;;999.90;;
68995;SDS011;56056;48.990;12.146;2024-03-17T01:29:47;1960.85;;;999.90;;
68995;SDS011;56056;48.990;12.146;2024-03-17T01:32:13;1901.35;;;999.90;;
68995;SDS011;56056;48.990;12.146;2024-03-17T01:34:39;1999.90;;;999.90;;
68995;SDS011;56056;48.990;12.146;2024-03-17T01:37:05;1991.00;;;999.90;;
68995;SDS011;56056;48.990;12.146;2024-03-17T01:39:32;1999.90;;;999.90;;
68995;SDS011;56056;48.990;12.146;2024-03-17T01:41:58;1999.90;;;999.90;;
68995;SDS011;56056;48.990;12.146;2024-03-17T01:44:25;1999.90;;;999.90;;
68995;SDS011;56056;48.990;12.146;2024-03-17T01:46:54;1999.90;;;999.90;;
68995;SDS011;56056;48.990;12.146;2024-03-17T01:49:21;1999.90;;;999.90;;
68995;SDS011;56056;48.990;12.146;2024-03-17T01:51:48;1999.90;;;999.90;;
68995;SDS011;56056;48.990;12.146;2024-03-17T01:54:15;1999.90;;;999.90;;
68995;SDS011;56056;48.990;12.146;2024-03-17T01:56:42;1999.90;;;999.90;;
68995;SDS011;56056;48.990;12.146;2024-03-17T01:59:09;1999.90;;;999.90;;
68995;SDS011;56056;48.990;12.146;2024-03-17T02:01:35;1999.90;;;999.90;;
68995;SDS011;56056;48.990;12.146;2024-03-17T02:04:03;1999.90;;;999.90;;
68995;SDS011;56056;48.990;12.146;2024-03-17T02:06:30;1999.90;;;999.90;;
68995;SDS011;56056;48.990;12.146;2024-03-17T02:08:56;1999.90;;;999.90;;
68995;SDS011;56056;48.990;12.146;2024-03-17T02:11:25;1999.90;;;999.90;;
68995;SDS011;56056;48.990;12.146;2024-03-17T02:13:53;1999.90;;;999.90;;
68995;SDS011;56056;48.990;12.146;2024-03-17T02:16:20;1999.90;;;999.90;;
68995;SDS011;56056;48.990;12.146;2024-03-17T02:18:46;1999.90;;;999.90;;
68995;SDS011;56056;48.990;12.146;2024-03-17T02:21:13;1999.90;;;999.90;;
68995;SDS011;56056;48.990;12.146;2024-03-17T02:23:42;1999.90;;;999.90;;
68995;SDS011;56056;48.990;12.146;2024-03-17T02:26:08;1999.90;;;999.90;;
68995;SDS011;56056;48.990;12.146;2024-03-17T02:28:40;1999.90;;;999.90;;
68995;SDS011;56056;48.990;12.146;2024-03-17T02:31:07;1999.90;;;975.75;;
68995;SDS011;56056;48.990;12.146;2024-03-17T02:33:35;1999.90;;;999.90;;
68995;SDS011;56056;48.990;12.146;2024-03-17T02:36:01;1999.90;;;977.25;;
68995;SDS011;56056;48.990;12.146;2024-03-17T02:38:29;1999.90;;;908.00;;
68995;SDS011;56056;48.990;12.146;2024-03-17T02:41:15;1999.90;;;999.35;;
68995;SDS011;56056;48.990;12.146;2024-03-17T02:43:41;1999.90;;;976.85;;
68995;SDS011;56056;48.990;12.146;2024-03-17T02:46:10;1999.90;;;999.90;;
68995;SDS011;56056;48.990;12.146;2024-03-17T02:48:37;1999.90;;;999.90;;
68995;SDS011;56056;48.990;12.146;2024-03-17T02:51:09;1999.90;;;999.90;;
68995;SDS011;56056;48.990;12.146;2024-03-17T02:53:36;1999.90;;;999.90;;
68995;SDS011;56056;48.990;12.146;2024-03-17T02:56:02;1999.90;;;999.90;;
68995;SDS011;56056;48.990;12.146;2024-03-17T02:58:30;1999.90;;;999.90;;
68995;SDS011;56056;48.990;12.146;2024-03-17T03:00:55;1999.90;;;999.90;;
68995;SDS011;56056;48.990;12.146;2024-03-17T03:03:21;1999.90;;;999.90;;
68995;SDS011;56056;48.990;12.146;2024-03-17T03:05:47;1999.90;;;999.90;;
68995;SDS011;56056;48.990;12.146;2024-03-17T03:08:14;1999.90;;;999.90;;
68995;SDS011;56056;48.990;12.146;2024-03-17T03:10:43;1999.90;;;999.90;;
68995;SDS011;56056;48.990;12.146;2024-03-17T03:13:09;1999.90;;;999.90;;
68995;SDS011;56056;48.990;12.146;2024-03-17T03:15:36;1999.90;;;999.90;;
68995;SDS011;56056;48.990;12.146;2024-03-17T03:18:02;1999.90;;;999.90;;
68995;SDS011;56056;48.990;12.146;2024-03-17T03:20:28;1999.90;;;999.90;;
68995;SDS011;56056;48.990;12.146;2024-03-17T03:22:54;1999.90;;;999.90;;
68995;SDS011;56056;48.990;12.146;2024-03-17T03:25:21;1999.90;;;981.58;;
68995;SDS011;56056;48.990;12.146;2024-03-17T03:27:47;1999.90;;;895.88;;
68995;SDS011;56056;48.990;12.146;2024-03-17T03:30:13;1986.10;;;629.92;;
68995;SDS011;56056;48.990;12.146;2024-03-17T03:32:41;1999.90;;;680.53;;
68995;SDS011;56056;48.990;12.146;2024-03-17T03:35:07;1946.53;;;602.38;;
68995;SDS011;56056;48.990;12.146;2024-03-17T03:37:34;1999.90;;;999.90;;
68995;SDS011;56056;48.990;12.146;2024-03-17T03:40:00;1999.90;;;629.55;;
68995;SDS011;56056;48.990;12.146;2024-03-17T03:42:26;1999.07;;;816.50;;
68995;SDS011;56056;48.990;12.146;2024-03-17T03:44:52;1992.75;;;695.30;;
68995;SDS011;56056;48.990;12.146;2024-03-17T03:47:18;1922.40;;;762.33;;
68995;SDS011;56056;48.990;12.146;2024-03-17T03:49:45;1707.32;;;509.48;;
68995;SDS011;56056;48.990;12.146;2024-03-17T03:52:11;1925.30;;;777.08;;
68995;SDS011;56056;48.990;12.146;2024-03-17T03:54:37;1928.45;;;779.15;;
68995;SDS011;56056;48.990;12.146;2024-03-17T03:57:03;1511.25;;;418.38;;
68995;SDS011;56056;48.990;12.146;2024-03-17T03:59:29;1999.90;;;999.90;;
68995;SDS011;56056;48.990;12.146;2024-03-17T04:01:55;1999.90;;;999.90;;
68995;SDS011;56056;48.990;12.146;2024-03-17T04:04:21;1999.90;;;999.90;;
68995;SDS011;56056;48.990;12.146;2024-03-17T04:06:48;1879.05;;;862.72;;
68995;SDS011;56056;48.990;12.146;2024-03-17T04:09:14;1640.22;;;450.13;;
68995;SDS011;56056;48.990;12.146;2024-03-17T04:11:40;1746.20;;;712.75;;
68995;SDS011;56056;48.990;12.146;2024-03-17T04:14:06;1804.60;;;830.53;;
68995;SDS011;56056;48.990;12.146;2024-03-17T04:16:32;1999.90;;;999.90;;
68995;SDS011;56056;48.990;12.146;2024-03-17T04:18:57;1402.20;;;385.77;;
68995;SDS011;56056;48.990;12.146;2024-03-17T04:21:23;1800.38;;;824.30;;
68995;SDS011;56056;48.990;12.146;2024-03-17T04:23:50;1464.25;;;603.83;;
68995;SDS011;56056;48.990;12.146;2024-03-17T04:26:16;1999.90;;;999.90;;
68995;SDS011;56056;48.990;12.146;2024-03-17T04:28:43;614.65;;;131.68;;
68995;SDS011;56056;48.990;12.146;2024-03-17T04:31:09;1999.90;;;999.90;;
68995;SDS011;56056;48.990;12.146;2024-03-17T04:33:36;465.83;;;93.68;;
68995;SDS011;56056;48.990;12.146;2024-03-17T04:36:02;1640.32;;;788.10;;
68995;SDS011;56056;48.990;12.146;2024-03-17T04:38:29;1671.68;;;799.13;;
68995;SDS011;56056;48.990;12.146;2024-03-17T04:40:56;1393.20;;;611.47;;
68995;SDS011;56056;48.990;12.146;2024-03-17T04:43:29;1444.20;;;612.58;;
68995;SDS011;56056;48.990;12.146;2024-03-17T04:46:00;1999.90;;;999.90;;
68995;SDS011;56056;48.990;12.146;2024-03-17T04:48:29;1828.63;;;848.60;;
68995;SDS011;56056;48.990;12.146;2024-03-17T04:50:55;1706.03;;;708.55;;
68995;SDS011;56056;48.990;12.146;2024-03-17T04:53:21;1985.18;;;914.50;;
68995;SDS011;56056;48.990;12.146;2024-03-17T04:55:47;1851.32;;;765.15;;
68995;SDS011;56056;48.990;12.146;2024-03-17T04:58:14;1999.90;;;999.90;;
68995;SDS011;56056;48.990;12.146;2024-03-17T05:00:40;1946.40;;;620.10;;
68995;SDS011;56056;48.990;12.146;2024-03-17T05:03:06;1999.90;;;810.95;;
68995;SDS011;56056;48.990;12.146;2024-03-17T05:05:32;1951.18;;;639.63;;
68995;SDS011;56056;48.990;12.146;2024-03-17T05:07:58;1997.43;;;862.72;;
68995;SDS011;56056;48.990;12.146;2024-03-17T05:10:23;1999.90;;;903.67;;
68995;SDS011;56056;48.990;12.146;2024-03-17T05:12:49;1999.90;;;944.67;;
68995;SDS011;56056;48.990;12.146;2024-03-17T05:15:16;1999.90;;;999.60;;
68995;SDS011;56056;48.990;12.146;2024-03-17T05:17:42;1999.90;;;927.67;;
68995;SDS011;56056;48.990;12.146;2024-03-17T05:20:08;1999.90;;;999.90;;
68995;SDS011;56056;48.990;12.146;2024-03-17T05:22:35;1999.90;;;994.10;;
68995;SDS011;56056;48.990;12.146;2024-03-17T05:25:01;1999.90;;;999.90;;
68995;SDS011;56056;48.990;12.146;2024-03-17T05:27:27;1999.90;;;999.90;;
68995;SDS011;56056;48.990;12.146;2024-03-17T05:29:53;1999.90;;;999.90;;
68995;SDS011;56056;48.990;12.146;2024-03-17T05:32:20;1999.90;;;999.90;;
68995;SDS011;56056;48.990;12.146;2024-03-17T05:34:46;1999.90;;;999.90;;
68995;SDS011;56056;48.990;12.146;2024-03-17T05:37:12;1999.90;;;999.90;;
68995;SDS011;56056;48.990;12.146;2024-03-17T05:39:38;1999.90;;;999.90;;
68995;SDS011;56056;48.990;12.146;2024-03-17T05:42:04;1999.90;;;999.90;;
68995;SDS011;56056;48.990;12.146;2024-03-17T05:44:31;1999.90;;;999.90;;
68995;SDS011;56056;48.990;12.146;2024-03-17T05:47:14;1999.90;;;999.90;;
68995;SDS011;56056;48.990;12.146;2024-03-17T05:49:43;1999.90;;;999.90;;
68995;SDS011;56056;48.990;12.146;2024-03-17T05:52:08;1999.90;;;999.90;;
68995;SDS011;56056;48.990;12.146;2024-03-17T05:54:35;1999.90;;;999.90;;
68995;SDS011;56056;48.990;12.146;2024-03-17T05:57:02;1999.90;;;999.90;;
68995;SDS011;56056;48.990;12.146;2024-03-17T05:59:34;1999.90;;;999.90;;
68995;SDS011;56056;48.990;12.146;2024-03-17T06:02:00;1999.90;;;999.90;;
68995;SDS011;56056;48.990;12.146;2024-03-17T06:04:26;1999.90;;;999.90;;
68995;SDS011;56056;48.990;12.146;2024-03-17T06:06:53;1999.90;;;999.90;;
68995;SDS011;56056;48.990;12.146;2024-03-17T06:09:18;1999.90;;;999.90;;
68995;SDS011;56056;48.990;12.146;2024-03-17T06:11:45;1999.90;;;999.90;;
68995;SDS011;56056;48.990;12.146;2024-03-17T06:14:11;1999.90;;;999.90;;
68995;SDS011;56056;48.990;12.146;2024-03-17T06:16:38;1999.90;;;999.90;;
68995;SDS011;56056;48.990;12.146;2024-03-17T06:19:04;1999.90;;;999.90;;
68995;SDS011;56056;48.990;12.146;2024-03-17T06:21:30;1999.90;;;999.90;;
68995;SDS011;56056;48.990;12.146;2024-03-17T06:23:57;1944.63;;;999.90;;
68995;SDS011;56056;48.990;12.146;2024-03-17T06:26:23;1862.90;;;999.90;;
68995;SDS011;56056;48.990;12.146;2024-03-17T06:28:49;1999.90;;;999.90;;
68995;SDS011;56056;48.990;12.146;2024-03-17T06:31:15;1958.55;;;999.90;;
68995;SDS011;56056;48.990;12.146;2024-03-17T06:33:40;1678.13;;;999.90;;
68995;SDS011;56056;48.990;12.146;2024-03-17T06:36:06;1754.07;;;999.90;;
68995;SDS011;56056;48.990;12.146;2024-03-17T06:38:33;1992.30;;;999.90;;
68995;SDS011;56056;48.990;12.146;2024-03-17T06:41:01;1999.90;;;999.90;;
68995;SDS011;56056;48.990;12.146;2024-03-17T06:43:26;1999.90;;;999.90;;
68995;SDS011;56056;48.990;12.146;2024-03-17T06:45:55;1999.90;;;999.90;;
68995;SDS011;56056;48.990;12.146;2024-03-17T06:48:23;1999.90;;;999.90;;
68995;SDS011;56056;48.990;12.146;2024-03-17T06:50:49;1926.30;;;999.90;;
68995;SDS011;56056;48.990;12.146;2024-03-17T06:53:17;1896.03;;;999.90;;
68995;SDS011;56056;48.990;12.146;2024-03-17T06:55:43;1942.78;;;999.90;;
68995;SDS011;56056;48.990;12.146;2024-03-17T06:58:12;1862.78;;;999.90;;
68995;SDS011;56056;48.990;12.146;2024-03-17T07:00:38;1682.45;;;999.25;;
68995;SDS011;56056;48.990;12.146;2024-03-17T07:03:04;1696.97;;;997.58;;
68995;SDS011;56056;48.990;12.146;2024-03-17T07:05:30;1554.60;;;949.17;;
68995;SDS011;56056;48.990;12.146;2024-03-17T07:07:57;1661.35;;;999.63;;
68995;SDS011;56056;48.990;12.146;2024-03-17T07:10:23;1586.15;;;984.08;;
68995;SDS011;56056;48.990;12.146;2024-03-17T07:12:51;1683.90;;;999.05;;
68995;SDS011;56056;48.990;12.146;2024-03-17T07:15:18;1599.03;;;990.00;;
68995;SDS011;56056;48.990;12.146;2024-03-17T07:17:44;1682.30;;;988.58;;
68995;SDS011;56056;48.990;12.146;2024-03-17T07:20:10;1703.07;;;988.85;;
68995;SDS011;56056;48.990;12.146;2024-03-17T07:22:38;1567.40;;;936.63;;
68995;SDS011;56056;48.990;12.146;2024-03-17T07:25:04;1433.70;;;907.17;;
68995;SDS011;56056;48.990;12.146;2024-03-17T07:27:30;1376.70;;;921.58;;
68995;SDS011;56056;48.990;12.146;2024-03-17T07:29:57;1252.78;;;858.28;;
68995;SDS011;56056;48.990;12.146;2024-03-17T07:32:24;1528.75;;;945.45;;
68995;SDS011;56056;48.990;12.146;2024-03-17T07:34:50;1530.50;;;930.72;;
68995;SDS011;56056;48.990;12.146;2024-03-17T07:37:16;1576.22;;;971.70;;
68995;SDS011;56056;48.990;12.146;2024-03-17T07:39:42;1510.47;;;972.47;;
68995;SDS011;56056;48.990;12.146;2024-03-17T07:42:08;1318.95;;;929.97;;
68995;SDS011;56056;48.990;12.146;2024-03-17T07:44:34;1196.97;;;928.28;;
68995;SDS011;56056;48.990;12.146;2024-03-17T07:47:00;1119.85;;;906.90;;
68995;SDS011;56056;48.990;12.146;2024-03-17T07:49:27;935.70;;;849.65;;
68995;SDS011;56056;48.990;12.146;2024-03-17T07:51:53;974.10;;;883.45;;
68995;SDS011;56056;48.990;12.146;2024-03-17T07:54:19;1126.88;;;999.90;;
68995;SDS011;56056;48.990;12.146;2024-03-17T07:56:45;1222.22;;;999.90;;
68995;SDS011;56056;48.990;12.146;2024-03-17T07:59:13;1287.10;;;999.90;;
68995;SDS011;56056;48.990;12.146;2024-03-17T08:01:42;852.60;;;800.92;;
68995;SDS011;56056;48.990;12.146;2024-03-17T08:04:08;539.70;;;515.80;;
68995;SDS011;56056;48.990;12.146;2024-03-17T08:06:38;401.77;;;385.27;;
68995;SDS011;56056;48.990;12.146;2024-03-17T08:09:04;466.83;;;447.08;;
68995;SDS011;56056;48.990;12.146;2024-03-17T08:11:29;410.75;;;393.88;;
68995;SDS011;56056;48.990;12.146;2024-03-17T08:13:55;384.80;;;369.70;;
68995;SDS011;56056;48.990;12.146;2024-03-17T08:16:21;360.02;;;345.95;;
68995;SDS011;56056;48.990;12.146;2024-03-17T08:18:47;329.73;;;317.05;;
68995;SDS011;56056;48.990;12.146;2024-03-17T08:21:13;401.83;;;385.02;;
68995;SDS011;56056;48.990;12.146;2024-03-17T08:23:40;340.63;;;327.60;;
68995;SDS011;56056;48.990;12.146;2024-03-17T08:26:11;356.60;;;342.58;;
68995;SDS011;56056;48.990;12.146;2024-03-17T08:28:37;379.52;;;364.52;;
68995;SDS011;56056;48.990;12.146;2024-03-17T08:31:03;439.10;;;421.15;;
68995;SDS011;56056;48.990;12.146;2024-03-17T08:33:30;496.63;;;475.88;;
68995;SDS011;56056;48.990;12.146;2024-03-17T08:35:57;393.70;;;378.13;;
68995;SDS011;56056;48.990;12.146;2024-03-17T08:38:25;482.40;;;462.45;;
68995;SDS011;56056;48.990;12.146;2024-03-17T08:40:54;327.88;;;315.38;;
68995;SDS011;56056;48.990;12.146;2024-03-17T08:43:21;387.73;;;372.63;;
68995;SDS011;56056;48.990;12.146;2024-03-17T08:45:54;437.02;;;419.55;;
68995;SDS011;56056;48.990;12.146;2024-03-17T08:48:20;492.08;;;471.58;;
68995;SDS011;56056;48.990;12.146;2024-03-17T08:50:49;463.38;;;443.60;;
68995;SDS011;56056;48.990;12.146;2024-03-17T08:53:16;517.40;;;494.27;;
68995;SDS011;56056;48.990;12.146;2024-03-17T08:55:42;479.13;;;459.25;;
68995;SDS011;56056;48.990;12.146;2024-03-17T08:58:10;461.80;;;442.55;;
68995;SDS011;56056;48.990;12.146;2024-03-17T09:00:35;460.00;;;440.95;;
68995;SDS011;56056;48.990;12.146;2024-03-17T09:03:01;514.70;;;492.77;;
68995;SDS011;56056;48.990;12.146;2024-03-17T09:05:27;489.50;;;469.65;;
68995;SDS011;56056;48.990;12.146;2024-03-17T09:07:53;398.00;;;382.73;;
68995;SDS011;56056;48.990;12.146;2024-03-17T09:10:20;472.33;;;452.75;;
68995;SDS011;56056;48.990;12.146;2024-03-17T09:12:46;402.40;;;386.52;;
68995;SDS011;56056;48.990;12.146;2024-03-17T09:15:13;409.08;;;392.63;;
68995;SDS011;56056;48.990;12.146;2024-03-17T09:17:39;432.23;;;414.73;;
68995;SDS011;56056;48.990;12.146;2024-03-17T09:20:06;402.83;;;387.00;;
68995;SDS011;56056;48.990;12.146;2024-03-17T09:22:36;398.58;;;383.05;;
68995;SDS011;56056;48.990;12.146;2024-03-17T09:25:04;440.10;;;422.45;;
68995;SDS011;56056;48.990;12.146;2024-03-17T09:27:32;398.77;;;383.38;;
68995;SDS011;56056;48.990;12.146;2024-03-17T09:29:59;382.33;;;367.27;;
68995;SDS011;56056;48.990;12.146;2024-03-17T09:32:26;533.13;;;509.35;;
68995;SDS011;56056;48.990;12.146;2024-03-17T09:34:52;471.63;;;451.58;;
68995;SDS011;56056;48.990;12.146;2024-03-17T09:37:18;447.45;;;429.17;;
68995;SDS011;56056;48.990;12.146;2024-03-17T09:39:46;365.70;;;351.33;;
68995;SDS011;56056;48.990;12.146;2024-03-17T09:42:15;324.02;;;311.63;;
68995;SDS011;56056;48.990;12.146;2024-03-17T09:44:44;323.10;;;310.70;;
68995;SDS011;56056;48.990;12.146;2024-03-17T09:47:11;410.55;;;394.90;;
68995;SDS011;56056;48.990;12.146;2024-03-17T09:49:45;425.33;;;408.83;;
68995;SDS011;56056;48.990;12.146;2024-03-17T09:52:18;270.95;;;261.38;;
68995;SDS011;56056;48.990;12.146;2024-03-17T09:54:47;227.85;;;219.63;;
68995;SDS011;56056;48.990;12.146;2024-03-17T09:57:19;345.73;;;333.65;;
68995;SDS011;56056;48.990;12.146;2024-03-17T09:59:50;416.38;;;399.80;;
68995;SDS011;56056;48.990;12.146;2024-03-17T10:02:17;518.97;;;499.80;;
68995;SDS011;56056;48.990;12.146;2024-03-17T10:04:43;548.40;;;528.33;;
68995;SDS011;56056;48.990;12.146;2024-03-17T10:07:11;494.52;;;477.27;;
68995;SDS011;56056;48.990;12.146;2024-03-17T10:09:37;426.02;;;410.92;;
68995;SDS011;56056;48.990;12.146;2024-03-17T10:12:04;264.73;;;255.20;;
68995;SDS011;56056;48.990;12.146;2024-03-17T10:14:31;556.08;;;535.40;;
68995;SDS011;56056;48.990;12.146;2024-03-17T10:16:58;652.28;;;626.33;;
68995;SDS011;56056;48.990;12.146;2024-03-17T10:19:24;601.95;;;579.05;;
68995;SDS011;56056;48.990;12.146;2024-03-17T10:21:58;484.40;;;467.70;;
68995;SDS011;56056;48.990;12.146;2024-03-17T10:24:26;300.90;;;290.98;;
68995;SDS011;56056;48.990;12.146;2024-03-17T10:26:57;162.70;;;157.13;;
68995;SDS011;56056;48.990;12.146;2024-03-17T10:29:24;140.65;;;135.77;;
68995;SDS011;56056;48.990;12.146;2024-03-17T10:31:53;89.63;;;86.40;;
68995;SDS011;56056;48.990;12.146;2024-03-17T10:34:20;167.25;;;161.43;;
68995;SDS011;56056;48.990;12.146;2024-03-17T10:36:49;70.85;;;68.30;;
68995;SDS011;56056;48.990;12.146;2024-03-17T10:39:23;45.00;;;43.33;;
68995;SDS011;56056;48.990;12.146;2024-03-17T10:41:54;50.63;;;48.78;;
68995;SDS011;56056;48.990;12.146;2024-03-17T10:44:24;45.85;;;44.17;;
68995;SDS011;56056;48.990;12.146;2024-03-17T10:46:50;84.65;;;81.40;;
68995;SDS011;56056;48.990;12.146;2024-03-17T10:49:20;64.20;;;61.85;;
68995;SDS011;56056;48.990;12.146;2024-03-17T10:51:49;48.53;;;46.75;;
68995;SDS011;56056;48.990;12.146;2024-03-17T10:54:25;34.70;;;33.40;;
68995;SDS011;56056;48.990;12.146;2024-03-17T10:56:53;36.30;;;34.88;;
68995;SDS011;56056;48.990;12.146;2024-03-17T10:59:23;43.70;;;42.10;;
68995;SDS011;56056;48.990;12.146;2024-03-17T11:02:03;81.90;;;78.90;;
68995;SDS011;56056;48.990;12.146;2024-03-17T11:04:38;78.93;;;76.00;;
68995;SDS011;56056;48.990;12.146;2024-03-17T11:07:06;82.15;;;79.03;;
68995;SDS011;56056;48.990;12.146;2024-03-17T11:09:42;103.47;;;99.60;;
68995;SDS011;56056;48.990;12.146;2024-03-17T11:21:03;51.30;;;49.45;;
68995;SDS011;56056;48.990;12.146;2024-03-17T11:23:37;45.10;;;43.50;;
68995;SDS011;56056;48.990;12.146;2024-03-17T11:26:04;31.55;;;30.40;;
68995;SDS011;56056;48.990;12.146;2024-03-17T11:28:48;47.05;;;45.33;;
68995;SDS011;56056;48.990;12.146;2024-03-17T11:31:35;47.92;;;46.17;;
68995;SDS011;56056;48.990;12.146;2024-03-17T11:34:08;35.83;;;34.55;;
68995;SDS011;56056;48.990;12.146;2024-03-17T11:36:59;37.47;;;36.13;;
68995;SDS011;56056;48.990;12.146;2024-03-17T11:42:23;439.17;;;423.05;;
68995;SDS011;56056;48.990;12.146;2024-03-17T11:44:58;497.30;;;477.25;;
68995;SDS011;56056;48.990;12.146;2024-03-17T11:47:35;583.92;;;558.45;;
68995;SDS011;56056;48.990;12.146;2024-03-17T11:50:04;601.83;;;574.47;;
68995;SDS011;56056;48.990;12.146;2024-03-17T11:52:34;590.35;;;563.70;;
68995;SDS011;56056;48.990;12.146;2024-03-17T11:55:02;567.88;;;542.78;;
68995;SDS011;56056;48.990;12.146;2024-03-17T11:57:28;570.30;;;544.72;;
68995;SDS011;56056;48.990;12.146;2024-03-17T11:59:55;601.60;;;573.65;;
68995;SDS011;56056;48.990;12.146;2024-03-17T12:02:22;636.08;;;606.10;;
68995;SDS011;56056;48.990;12.146;2024-03-17T12:04:51;632.72;;;602.67;;
68995;SDS011;56056;48.990;12.146;2024-03-17T12:07:18;650.88;;;619.67;;
68995;SDS011;56056;48.990;12.146;2024-03-17T12:09:48;584.83;;;558.03;;
68995;SDS011;56056;48.990;12.146;2024-03-17T12:12:17;628.05;;;597.90;;
68995;SDS011;56056;48.990;12.146;2024-03-17T12:14:45;580.92;;;553.97;;
68995;SDS011;56056;48.990;12.146;2024-03-17T12:17:13;576.67;;;550.08;;
68995;SDS011;56056;48.990;12.146;2024-03-17T12:19:44;606.42;;;578.08;;
68995;SDS011;56056;48.990;12.146;2024-03-17T12:22:14;640.05;;;609.13;;
68995;SDS011;56056;48.990;12.146;2024-03-17T12:24:46;590.20;;;563.28;;
68995;SDS011;56056;48.990;12.146;2024-03-17T12:27:16;732.63;;;694.05;;
68995;SDS011;56056;48.990;12.146;2024-03-17T12:29:47;690.10;;;654.83;;
68995;SDS011;56056;48.990;12.146;2024-03-17T12:32:14;960.28;;;902.95;;
68995;SDS011;56056;48.990;12.146;2024-03-17T12:34:42;890.92;;;838.05;;
68995;SDS011;56056;48.990;12.146;2024-03-17T12:37:13;700.70;;;665.53;;
68995;SDS011;56056;48.990;12.146;2024-03-17T12:39:43;770.00;;;728.83;;
68995;SDS011;56056;48.990;12.146;2024-03-17T12:42:10;733.92;;;696.00;;
68995;SDS011;56056;48.990;12.146;2024-03-17T12:44:43;788.15;;;746.67;;
68995;SDS011;56056;48.990;12.146;2024-03-17T12:47:15;952.67;;;899.08;;
68995;SDS011;56056;48.990;12.146;2024-03-17T12:49:44;724.78;;;687.97;;
68995;SDS011;56056;48.990;12.146;2024-03-17T12:52:16;678.17;;;645.67;;
68995;SDS011;56056;48.990;12.146;2024-03-17T12:54:44;562.72;;;537.80;;
68995;SDS011;56056;48.990;12.146;2024-03-17T12:57:17;842.88;;;798.72;;
68995;SDS011;56056;48.990;12.146;2024-03-17T13:00:17;641.95;;;610.80;;
68995;SDS011;56056;48.990;12.146;2024-03-17T13:02:57;594.30;;;566.65;;
68995;SDS011;56056;48.990;12.146;2024-03-17T13:05:23;642.63;;;611.13;;
68995;SDS011;56056;48.990;12.146;2024-03-17T13:07:49;689.55;;;654.35;;
68995;SDS011;56056;48.990;12.146;2024-03-17T13:10:16;688.20;;;653.78;;
68995;SDS011;56056;48.990;12.146;2024-03-17T13:12:43;654.55;;;621.78;;
68995;SDS011;56056;48.990;12.146;2024-03-17T13:15:11;701.78;;;665.03;;
68995;SDS011;56056;48.990;12.146;2024-03-17T13:17:41;743.75;;;704.42;;
68995;SDS011;56056;48.990;12.146;2024-03-17T13:20:08;697.92;;;662.42;;
68995;SDS011;56056;48.990;12.146;2024-03-17T13:22:40;735.92;;;697.45;;
68995;SDS011;56056;48.990;12.146;2024-03-17T13:25:12;632.13;;;601.65;;
68995;SDS011;56056;48.990;12.146;2024-03-17T13:27:40;600.55;;;572.10;;
68995;SDS011;56056;48.990;12.146;2024-03-17T13:30:07;664.35;;;630.53;;
68995;SDS011;56056;48.990;12.146;2024-03-17T13:32:34;614.38;;;585.17;;
68995;SDS011;56056;48.990;12.146;2024-03-17T13:35:01;950.60;;;891.63;;
68995;SDS011;56056;48.990;12.146;2024-03-17T13:37:27;835.85;;;786.83;;
68995;SDS011;56056;48.990;12.146;2024-03-17T13:39:53;683.95;;;649.42;;
68995;SDS011;56056;48.990;12.146;2024-03-17T13:42:19;672.97;;;638.58;;
68995;SDS011;56056;48.990;12.146;2024-03-17T13:44:45;621.78;;;592.13;;
68995;SDS011;56056;48.990;12.146;2024-03-17T13:47:11;648.60;;;616.30;;
68995;SDS011;56056;48.990;12.146;2024-03-17T13:49:39;670.38;;;636.75;;
68995;SDS011;56056;48.990;12.146;2024-03-17T13:52:06;655.90;;;623.28;;
68995;SDS011;56056;48.990;12.146;2024-03-17T13:54:32;601.42;;;573.70;;